Airfield :
LOGIN :

Register | Disclaimer

   EN    FR    IT 

 










Legend :    VFR   Marginal VFR   IFR   Intensive IFR   Very Intensive IFR
Visi :
Ceiling :
>= 8 km
>= 3000ft
5 to 8 km
1000 to 3000 ft
1500m to 5 km
500 to 1000 ft
800 to 1500m
200 to 500 ft
< 800m
< 200 ft
Symbols :   Thunderstorms  Fog  Heavy snow  Heavy precipitations  Wind > 20 kt
SIGMETs :     Misc.  Thunderstorms  Icing  Turbulence  Mountain Waves  Volcanic Ashes







- Airport Elevation : 65 ft
- IATA code : PIK
- Download approach charts


EGPK - Glasgow Prestwick

CURRENT METAR :
  • 191620Z 27004KT 9999 SCT035 15/09 Q1018

EXPIRED METARs :
  • 191550Z 28006KT 230V010 9999 SCT035 16/10 Q1018
  • 191520Z 26006KT 9999 FEW025 SCT030 16/10 Q1018
  • 191450Z 26007KT 9999 FEW025 SCT030 15/09 Q1018
  • 191420Z 26007KT 9999 FEW025 SCT030 16/09 Q1018
  • 191350Z 26008KT 9999 FEW028 16/10 Q1019

TAF TAF EGPK
Valid from the 19 at 12:00 until the 20 at 12:00 UTC


191101Z 1912/2012 24010KT 9999 SCT030
BECMG 1915/1918 17006KT
TEMPO 1922/2006 8000 -RA BKN012
PROB30
TEMPO 2000/2006 4000 RADZ BKN008
TEMPO 2006/2012 4000 RA BKN008
No reported NOTAMs for that airfield.



MET'MAP, your aeronautical weather chart ! - Copyright ORBIFLY December 2007 - Disclaimer

ORBIFLY MET'MAP TEAM :

Programming & Development : Alexandra Zaïnal
Concept & Development : Baudouin d'Aumeries
Co-Development & Prog : Marc-Olivier Méhu
Technical & hardware support : Manuel Goepfert

Contact : metmap@orbifly.com




SOURCES & CREDITS :

   NOAA